Terminal Aerodrome Forecast
Issued by NWS Cleveland, OH

Home | Current Version | Previous Version | Graphics & Text | Print | Product List | Glossary On
Versions: 1 2 3 4 5 6 7 8 9 10 11 12 13 14 15 16 17 18 19 20 21 22
000
FTUS41 KCLE 291100
TAFTOL
TAF
KTOL 291139Z 2912/3012 00000KT P6SM SKC
      TEMPO 2912/2913 3SM BR SCT003
     FM291400 30005KT P6SM SKC
     FM300000 26003KT P6SM SCT100 BKN250
     FM300800 30005KT P6SM VCSH BKN040 OVC100
     FM301000 32007KT P6SM BKN015 OVC040=

USA.gov is the U.S. government's official web portal to all federal, state and local government web resources and services.